Time;durP1;ratioP1;P1;durP2;ratioP2;P2;SDS_P1;SDS_P2;PMS_P1;PMS_P2;Temp;Humidity;BMP_temperature;BMP_pressure;BME280_temperature;BME280_humidity;BME280_pressure;Samples;Min_cycle;Max_cycle;Signal;HPM_P1;HPM_P2
2023/01/20 05:30:28;;;;;;;;;19.50;17.25;;;;;4.18;70.20;101289.97;5016018;28;45686;-76
2023/01/20 05:32:53;;;;;;;;;32.25;24.75;;;;;3.86;70.79;101265.56;5015452;28;45376;-76
2023/01/20 05:35:19;;;;;;;;;8.75;8.25;;;;;3.93;70.70;101279.63;5016167;28;45457;-76
2023/01/20 05:37:44;;;;;;;;;32.50;24.75;;;;;3.96;71.42;101282.25;5014866;28;45622;-76
2023/01/20 05:40:10;;;;;;;;;22.75;22.75;;;;;4.03;70.46;101278.63;5015575;28;46380;-76
2023/01/20 05:42:35;;;;;;;;;28.00;24.50;;;;;4.12;70.43;101287.38;5015793;28;45247;-76
2023/01/20 05:45:01;;;;;;;;;27.25;25.25;;;;;4.02;70.70;101295.44;5014775;28;45310;-76
2023/01/20 05:47:26;;;;;;;;;32.25;23.25;;;;;3.94;70.76;101282.25;5015574;28;45464;-76
2023/01/20 05:49:52;;;;;;;;;25.25;22.75;;;;;3.99;70.53;101296.38;5015790;28;46219;-76
2023/01/20 05:52:17;;;;;;;;;25.50;23.50;;;;;3.90;70.47;101290.28;5015888;28;45239;-76
2023/01/20 05:54:43;;;;;;;;;26.75;21.00;;;;;3.88;71.17;101300.91;5008880;28;45171;-74
2023/01/20 05:57:08;;;;;;;;;23.75;20.25;;;;;3.83;70.78;101291.25;5015387;28;45593;-76
2023/01/20 05:59:34;;;;;;;;;25.75;22.00;;;;;3.91;70.56;101310.59;4997586;28;47149;-79
2023/01/20 06:01:59;;;;;;;;;29.50;21.75;;;;;3.91;70.75;101314.16;5014803;28;45399;-79
2023/01/20 06:04:25;;;;;;;;;34.50;22.75;;;;;3.80;70.43;101303.63;5015979;28;46068;-78
2023/01/20 06:06:50;;;;;;;;;25.25;25.25;;;;;3.75;70.79;101286.84;5015192;28;45475;-79
2023/01/20 06:09:15;;;;;;;;;30.00;23.25;;;;;3.91;70.23;101318.56;5015560;28;45333;-78
2023/01/20 06:11:41;;;;;;;;;28.25;22.50;;;;;3.82;70.64;101297.44;5015690;28;45321;-80
2023/01/20 06:14:06;;;;;;;;;28.75;24.25;;;;;3.80;70.40;101298.31;5015878;28;45620;-76
2023/01/20 06:16:31;;;;;;;;;27.25;24.00;;;;;4.01;71.01;101325.50;5015092;28;45411;-77
2023/01/20 06:18:57;;;;;;;;;26.25;24.00;;;;;3.91;70.04;101330.06;5014150;28;47208;-76
2023/01/20 06:21:23;;;;;;;;;36.33;34.00;;;;;3.65;70.50;101290.50;5016025;28;45395;-76
2023/01/20 06:23:49;;;;;;;;;33.50;32.75;;;;;3.82;70.03;101319.53;4999879;28;45270;-75
2023/01/20 06:26:14;;;;;;;;;18.50;17.25;;;;;3.79;70.28;101322.19;5014738;28;45283;-77
2023/01/20 06:28:40;;;;;;;;;31.00;29.00;;;;;3.64;70.48;101314.38;5014945;28;45382;-74
2023/01/20 06:31:13;;;;;;;;;25.00;19.00;;;;;3.70;70.92;101319.63;5014642;28;45230;-75
2023/01/20 06:33:39;;;;;;;;;26.75;24.75;;;;;3.67;70.49;101299.31;5015324;28;45486;-75
2023/01/20 06:36:06;;;;;;;;;31.25;30.50;;;;;3.76;70.89;101328.41;5014948;28;45534;-75
2023/01/20 06:38:33;;;;;;;;;27.00;20.75;;;;;3.75;70.80;101308.06;5015185;28;45357;-77
2023/01/20 06:41:00;;;;;;;;;32.75;28.50;;;;;3.74;70.80;101322.22;5014587;28;45306;-76
2023/01/20 06:43:27;;;;;;;;;25.25;21.75;;;;;3.74;70.58;101324.88;5013905;28;45344;-75
2023/01/20 06:45:57;;;;;;;;;22.75;21.00;;;;;3.70;70.69;101311.66;5014629;28;45412;-72
2023/01/20 06:48:23;;;;;;;;;28.50;23.00;;;;;3.67;70.32;101315.22;5014435;28;45659;-75
2023/01/20 06:50:48;;;;;;;;;25.25;21.75;;;;;3.71;70.28;101324.03;5014355;28;45392;-76
2023/01/20 06:53:13;;;;;;;;;26.25;23.00;;;;;3.80;70.32;101330.16;5014402;28;45286;-77
2023/01/20 06:55:39;;;;;;;;;30.00;23.00;;;;;3.87;69.69;101330.97;5014393;28;45503;-74
2023/01/20 06:58:04;;;;;;;;;30.25;23.75;;;;;3.82;69.86;101339.88;5013776;28;46267;-73
2023/01/20 07:00:29;;;;;;;;;34.75;25.75;;;;;3.80;69.92;101345.19;5014107;28;45381;-75
2023/01/20 07:02:54;;;;;;;;;22.50;18.25;;;;;3.83;70.33;101346.94;5014852;28;46416;-74
2023/01/20 07:05:20;;;;;;;;;28.75;24.75;;;;;3.95;70.42;101349.47;5013186;28;45609;-73
2023/01/20 07:07:45;;;;;;;;;31.75;25.50;;;;;4.07;69.73;101347.59;5013340;28;45502;-73
2023/01/20 07:10:11;;;;;;;;;25.25;25.00;;;;;4.09;69.31;101351.06;5013148;28;45337;-73
2023/01/20 07:12:37;;;;;;;;;29.00;26.75;;;;;4.15;68.82;101345.72;5012853;28;45392;-74
2023/01/20 07:15:02;;;;;;;;;21.00;18.00;;;;;4.23;68.19;101358.03;5013206;28;45400;-73
2023/01/20 07:17:28;;;;;;;;;29.50;25.50;;;;;4.25;68.53;101356.25;5014257;28;45879;-73
2023/01/20 07:19:53;;;;;;;;;33.50;25.50;;;;;4.26;68.78;101360.63;5013931;28;45329;-72
2023/01/20 07:22:19;;;;;;;;;24.00;20.75;;;;;4.20;68.45;101350.97;5011853;28;45447;-75
2023/01/20 07:24:44;;;;;;;;;27.00;24.00;;;;;4.34;68.89;101375.59;4995205;28;45907;-77
2023/01/20 07:27:09;;;;;;;;;27.75;25.75;;;;;4.39;67.80;101363.16;5012884;28;45367;-76
2023/01/20 07:29:36;;;;;;;;;23.50;22.50;;;;;4.45;67.50;101381.69;5013481;28;45341;-76
2023/01/20 07:32:02;;;;;;;;;29.50;24.75;;;;;4.47;67.65;101386.97;4995547;28;45511;-74
2023/01/20 07:34:27;;;;;;;;;34.50;25.25;;;;;4.40;67.64;101375.56;5012882;28;45566;-75
2023/01/20 07:36:53;;;;;;;;;27.25;25.50;;;;;4.56;67.16;101398.38;5013137;28;45279;-76
2023/01/20 07:39:19;;;;;;;;;32.25;22.75;;;;;4.57;67.33;101400.16;5012623;28;45262;-75
2023/01/20 07:41:47;;;;;;;;;28.00;25.25;;;;;4.36;66.60;101391.50;4995323;28;45404;-77
2023/01/20 07:44:13;;;;;;;;;26.50;24.50;;;;;4.33;67.02;101394.22;5011062;28;45465;-75
2023/01/20 07:46:39;;;;;;;;;31.75;25.25;;;;;4.42;67.33;101404.75;5012970;28;46147;-74
2023/01/20 07:49:05;;;;;;;;;21.50;21.50;;;;;4.38;67.03;101395.03;5013172;28;45477;-76
2023/01/20 07:51:30;;;;;;;;;27.75;24.75;;;;;4.32;66.99;101395.09;5013319;28;45466;-75
2023/01/20 07:53:55;;;;;;;;;51.00;40.00;;;;;4.38;67.45;101405.66;5013389;28;45489;-76
2023/01/20 07:56:28;;;;;;;;;29.75;25.00;;;;;4.25;66.61;101404.91;5013370;28;45965;-75
2023/01/20 07:58:54;;;;;;;;;26.50;24.25;;;;;4.04;67.02;101400.66;5016089;28;45415;-75
2023/01/20 08:01:24;;;;;;;;;30.00;26.75;;;;;4.13;67.01;101420.94;5012456;28;46279;-76
2023/01/20 08:03:50;;;;;;;;;25.75;24.00;;;;;4.11;66.59;101415.63;5013065;28;45614;-75
2023/01/20 08:06:18;;;;;;;;;24.50;24.00;;;;;4.01;67.01;101392.72;5010042;28;45524;-75
2023/01/20 08:08:44;;;;;;;;;29.75;26.75;;;;;4.10;66.97;101421.81;5011297;28;45635;-75
2023/01/20 08:11:12;;;;;;;;;29.75;26.25;;;;;4.12;67.19;101414.75;5010684;28;45350;-76
2023/01/20 08:13:38;;;;;;;;;27.00;24.75;;;;;4.19;67.36;101408.47;5024187;28;45339;-75
2023/01/20 08:16:07;;;;;;;;;27.75;24.75;;;;;4.26;66.40;101417.25;5008958;28;45790;-73
2023/01/20 08:18:34;;;;;;;;;38.00;26.50;;;;;4.36;67.05;101416.28;5012924;28;45471;-74
2023/01/20 08:21:00;;;;;;;;;28.00;23.75;;;;;4.34;66.36;101402.13;5012515;28;45578;-74
2023/01/20 08:23:26;;;;;;;;;27.75;23.25;;;;;4.50;66.70;101405.53;5013792;28;45547;-75
2023/01/20 08:26:04;;;;;;;;;28.50;24.00;;;;;4.54;66.11;101410.78;5016637;28;46090;-74
2023/01/20 08:28:30;;;;;;;;;26.75;24.75;;;;;4.62;65.59;101407.16;5017073;28;45345;-73
2023/01/20 08:31:07;;;;;;;;;22.75;22.75;;;;;4.64;65.99;101419.53;5014654;28;45499;-76
2023/01/20 08:33:32;;;;;;;;;32.00;30.25;;;;;4.69;66.35;101417.69;5015907;28;45503;-74
2023/01/20 08:36:26;;;;;;;;;30.50;27.50;;;;;4.69;65.82;101438.06;5013696;28;45968;-75
2023/01/20 08:38:51;;;;;;;;;22.00;19.75;;;;;4.75;66.10;101432.72;5011391;28;45471;-74
2023/01/20 08:41:26;;;;;;;;;24.75;21.75;;;;;4.75;66.19;101436.25;4998270;28;45289;-74
2023/01/20 08:43:52;;;;;;;;;27.75;24.00;;;;;4.73;65.64;101446.00;5014332;28;46092;-74
2023/01/20 08:46:19;;;;;;;;;28.50;22.00;;;;;4.73;65.89;101447.78;5016325;28;45400;-73
2023/01/20 08:48:46;;;;;;;;;27.25;22.50;;;;;4.78;66.02;101452.13;5015132;28;45568;-73
2023/01/20 08:51:17;;;;;;;;;26.50;26.50;;;;;4.82;66.05;101440.59;5016676;28;45348;-73
2023/01/20 08:53:43;;;;;;;;;27.00;26.25;;;;;4.76;65.96;101429.16;5016013;28;45332;-79
2023/01/20 08:56:09;;;;;;;;;20.00;19.00;;;;;4.78;66.34;101432.66;5016267;28;45935;-74
2023/01/20 08:58:35;;;;;;;;;25.50;22.00;;;;;4.80;66.45;101444.16;5016126;28;45515;-74
2023/01/20 09:01:01;;;;;;;;;21.25;21.25;;;;;4.74;66.69;101438.91;5016431;28;45331;-75
2023/01/20 09:03:26;;;;;;;;;22.00;19.50;;;;;4.84;66.92;101443.22;5015557;28;45582;-75
2023/01/20 09:05:52;;;;;;;;;22.75;20.50;;;;;4.91;67.20;101455.53;5016130;28;45348;-72
2023/01/20 09:08:19;;;;;;;;;25.75;22.50;;;;;4.88;67.51;101439.63;5015194;28;45426;-74
2023/01/20 09:10:45;;;;;;;;;20.00;18.25;;;;;4.92;67.17;101460.84;4999736;28;45425;-74
2023/01/20 09:13:11;;;;;;;;;18.00;16.75;;;;;4.94;67.58;101464.34;5014310;28;46251;-73
2023/01/20 09:15:36;;;;;;;;;18.75;16.50;;;;;4.89;66.92;101471.50;5013742;28;45483;-73
2023/01/20 09:18:02;;;;;;;;;19.25;16.25;;;;;4.83;66.90;101460.94;5015857;28;45457;-74
2023/01/20 09:20:29;;;;;;;;;18.25;17.00;;;;;4.84;67.48;101468.03;5015795;28;45412;-75
2023/01/20 09:22:54;;;;;;;;;24.00;19.50;;;;;4.90;66.91;101469.72;5015716;28;45528;-73
2023/01/20 09:25:20;;;;;;;;;17.75;15.75;;;;;4.92;66.96;101467.94;5015695;28;45265;-74
2023/01/20 09:27:46;;;;;;;;;21.25;18.50;;;;;4.98;66.44;101467.84;5015546;28;45351;-74
2023/01/20 09:30:11;;;;;;;;;23.25;18.00;;;;;4.93;66.69;101459.06;5015626;28;45334;-73
2023/01/20 09:32:37;;;;;;;;;19.25;19.25;;;;;5.19;66.76;101475.56;5015126;28;45405;-74
2023/01/20 09:35:03;;;;;;;;;20.25;18.50;;;;;5.24;66.20;101484.38;5015013;28;46742;-75
2023/01/20 09:46:16;;;;;;;;;17.25;16.50;;;;;5.48;66.53;101480.53;5014906;28;45465;-75
2023/01/20 09:55:01;;;;;;;;;23.25;16.25;;;;;5.68;66.47;101486.47;5008307;28;45345;-75
2023/01/20 09:57:32;;;;;;;;;15.75;14.50;;;;;5.71;66.34;101501.47;5015824;28;46360;-74
2023/01/20 10:00:09;;;;;;;;;17.75;15.25;;;;;5.69;66.60;101496.19;5015329;28;45344;-74
2023/01/20 10:02:35;;;;;;;;;17.25;14.75;;;;;5.79;66.56;101499.59;5015327;28;45370;-75
2023/01/20 10:05:12;;;;;;;;;17.50;15.50;;;;;5.88;66.52;101509.25;5014897;28;45357;-74
2023/01/20 10:08:00;;;;;;;;;18.25;16.00;;;;;5.94;66.44;101503.88;5015147;28;46382;-74
2023/01/20 10:10:44;;;;;;;;;13.25;11.50;;;;;5.99;66.92;101510.00;5013137;28;45511;-75
2023/01/20 10:13:18;;;;;;;;;14.50;14.50;;;;;6.00;66.69;101509.97;5014753;28;45638;-73
2023/01/20 10:15:52;;;;;;;;;9.25;7.00;;;;;5.89;67.04;101503.91;5015472;28;45292;-75
2023/01/20 10:18:35;;;;;;;;;14.25;14.25;;;;;5.95;66.79;101511.84;5014478;28;45920;-74
2023/01/20 10:21:10;;;;;;;;;14.25;10.25;;;;;5.94;66.96;101504.75;5007948;28;45561;-73
2023/01/20 10:23:52;;;;;;;;;14.50;13.00;;;;;5.95;67.16;101511.84;5015197;28;45297;-73
2023/01/20 10:26:29;;;;;;;;;7.00;7.00;;;;;5.90;66.26;101516.31;5014758;28;45455;-73
2023/01/20 10:28:59;;;;;;;;;8.50;8.50;;;;;5.90;66.36;101508.34;4996823;28;47253;-74
2023/01/20 10:31:27;;;;;;;;;10.00;9.00;;;;;5.88;66.18;101517.25;4993032;28;45511;-75
2023/01/20 10:33:59;;;;;;;;;4.75;3.50;;;;;5.71;66.47;101474.88;4995943;28;45403;-82
2023/01/20 10:36:30;;;;;;;;;14.25;11.00;;;;;6.03;66.03;101519.69;4977742;28;46086;-81
2023/01/20 10:39:16;;;;;;;;;12.50;11.00;;;;;5.90;65.27;101496.81;4995121;28;46493;-81
2023/01/20 10:41:50;;;;;;;;;12.00;12.00;;;;;6.03;65.24;101509.94;4970569;28;45403;-80
2023/01/20 10:44:16;;;;;;;;;10.75;10.00;;;;;5.71;65.25;101446.50;4978910;28;45375;-81
2023/01/20 10:46:52;;;;;;;;;10.50;9.50;;;;;6.03;64.84;101490.41;4996096;28;45509;-82
2023/01/20 10:49:39;;;;;;;;;15.00;11.00;;;;;6.28;64.71;101526.41;4995599;28;46718;-81
2023/01/20 10:52:10;;;;;;;;;12.75;10.75;;;;;6.34;63.06;101530.75;4996453;28;45416;-81
2023/01/20 10:54:51;;;;;;;;;9.75;9.75;;;;;6.14;62.96;101491.13;4997089;28;45416;-79
2023/01/20 10:57:16;;;;;;;;;11.75;9.00;;;;;6.32;63.67;101498.81;5001196;28;45419;-75
2023/01/20 10:59:46;;;;;;;;;9.75;9.75;;;;;6.16;63.16;101489.31;4984879;28;45475;-78
2023/01/20 11:02:20;;;;;;;;;11.25;10.25;;;;;6.42;62.40;101515.53;5001386;28;45441;-78
2023/01/20 11:04:53;;;;;;;;;10.50;10.25;;;;;6.37;63.05;101509.41;5001384;28;45492;-78
2023/01/20 11:07:18;;;;;;;;;7.00;7.00;;;;;6.38;62.57;101511.16;4997339;28;45444;-78
2023/01/20 11:09:46;;;;;;;;;14.75;12.25;;;;;6.30;62.58;101489.97;4996285;28;45429;-76
2023/01/20 11:12:16;;;;;;;;;12.00;9.25;;;;;6.59;62.15;101513.44;4999641;28;45493;-77
2023/01/20 11:14:43;;;;;;;;;12.50;11.00;;;;;6.64;61.08;101506.25;5003880;28;45518;-76
2023/01/20 11:17:14;;;;;;;;;17.25;16.50;;;;;6.67;61.07;101502.66;4998492;28;45619;-76
2023/01/20 11:20:03;;;;;;;;;16.00;14.00;;;;;6.79;61.27;101502.44;4997988;28;45278;-75
2023/01/20 11:22:33;;;;;;;;;14.25;11.00;;;;;7.00;61.24;101485.16;4978979;28;46015;-76
2023/01/20 11:25:00;;;;;;;;;12.00;12.00;;;;;7.27;60.92;101475.72;4995975;28;45471;-79
2023/01/20 11:27:30;;;;;;;;;10.00;7.75;;;;;7.70;58.28;101510.38;4994603;28;45341;-76
2023/01/20 11:29:59;;;;;;;;;9.50;9.50;;;;;7.96;57.91;101506.22;4977275;28;47493;-74
2023/01/20 11:32:37;;;;;;;;;10.00;10.00;;;;;8.12;56.80;101501.41;4997282;28;45306;-75
2023/01/20 11:35:20;;;;;;;;;7.75;7.75;;;;;8.39;56.44;101513.25;5005305;28;45400;-75
2023/01/20 11:37:45;;;;;;;;;8.00;8.00;;;;;9.25;54.45;101488.66;5013789;28;45544;-76
2023/01/20 11:40:22;;;;;;;;;10.25;10.25;;;;;10.69;52.75;101491.28;5014114;28;45475;-75
2023/01/20 11:42:49;;;;;;;;;8.25;8.00;;;;;11.14;51.54;101469.13;5014591;28;45440;-80
2023/01/20 11:45:35;;;;;;;;;8.00;6.50;;;;;11.33;51.09;101480.91;5012499;28;45484;-75
2023/01/20 11:48:01;;;;;;;;;5.50;4.00;;;;;11.21;50.32;101495.66;5014401;28;45337;-76
2023/01/20 11:50:53;;;;;;;;;8.50;7.00;;;;;10.92;51.48;101494.00;5013529;28;46422;-76
2023/01/20 11:53:23;;;;;;;;;9.75;8.00;;;;;10.55;50.64;101497.09;5013775;28;45230;-74
2023/01/20 11:55:55;;;;;;;;;7.25;5.00;;;;;10.24;50.68;101505.28;5014140;28;45487;-77
2023/01/20 11:58:45;;;;;;;;;7.75;7.00;;;;;9.91;51.64;101495.59;5011972;28;45377;-76
2023/01/20 12:01:23;;;;;;;;;13.75;8.25;;;;;9.58;52.74;101499.31;5018157;28;45396;-73
2023/01/20 12:04:12;;;;;;;;;6.75;6.75;;;;;9.43;53.50;101500.63;5005526;28;45439;-76
2023/01/20 12:07:01;;;;;;;;;9.00;7.75;;;;;9.35;54.01;101495.50;5017957;28;45495;-76
2023/01/20 12:09:33;;;;;;;;;8.00;6.25;;;;;9.17;53.61;101482.66;5007736;28;45412;-80
2023/01/20 12:12:08;;;;;;;;;6.75;6.75;;;;;9.19;54.32;101499.50;4999375;28;47069;-77
2023/01/20 12:14:39;;;;;;;;;8.75;8.00;;;;;9.05;53.78;101497.25;5017131;28;45467;-78
2023/01/20 12:17:16;;;;;;;;;3.75;3.75;;;;;9.03;54.26;101501.75;5017119;28;45225;-78
2023/01/20 12:20:04;;;;;;;;;7.50;6.75;;;;;8.96;54.01;101486.78;5017560;28;45368;-80
2023/01/20 12:22:47;;;;;;;;;8.00;6.00;;;;;8.84;54.75;101487.13;5018448;28;46077;-80
2023/01/20 12:25:36;;;;;;;;;6.50;3.50;;;;;8.88;54.79;101485.25;4991662;28;45566;-82
2023/01/20 12:28:18;;;;;;;;;9.50;9.50;;;;;8.55;54.83;101449.59;5013090;28;45423;-81
2023/01/20 12:30:51;;;;;;;;;10.75;7.50;;;;;8.63;55.05;101479.69;5006894;28;45991;-81
2023/01/20 12:33:22;;;;;;;;;8.00;6.75;;;;;8.54;55.44;101467.44;4999832;28;47624;-80
2023/01/20 12:36:27;;;;;;;;;6.25;6.25;;;;;8.61;55.33;101481.50;5016390;28;45416;-80
2023/01/20 12:39:19;;;;;;;;;8.00;6.75;;;;;8.59;55.79;101500.25;4997725;28;45480;-81
2023/01/20 12:41:56;;;;;;;;;6.50;6.00;;;;;8.56;55.60;101489.66;5017472;28;45695;-80
2023/01/20 12:44:38;;;;;;;;;5.50;4.00;;;;;8.50;56.59;101492.50;4999008;28;46316;-80
2023/01/20 12:47:32;;;;;;;;;6.75;5.00;;;;;8.10;57.00;101448.94;5017172;28;45357;-81
2023/01/20 12:50:20;;;;;;;;;6.25;4.25;;;;;8.31;57.33;101497.41;5016463;28;45790;-79
2023/01/20 12:53:11;;;;;;;;;4.50;3.00;;;;;8.22;57.97;101488.72;5013032;28;45369;-80
2023/01/20 12:55:47;;;;;;;;;8.50;7.00;;;;;8.21;58.07;101489.63;5012770;28;47247;-77
2023/01/20 12:58:12;;;;;;;;;8.50;8.25;;;;;8.15;58.12;101493.31;5008989;28;45531;-78
2023/01/20 13:01:08;;;;;;;;;4.50;4.50;;;;;8.13;58.42;101483.59;5015811;28;46232;-77
2023/01/20 13:03:49;;;;;;;;;8.00;3.75;;;;;7.87;58.38;101469.06;5015652;28;45392;-82
2023/01/20 13:07:06;;;;;;;;;6.25;6.25;;;;;7.94;58.85;101486.69;5021009;28;46612;-83
2023/01/20 13:09:45;;;;;;;;;6.25;5.00;;;;;7.48;58.55;101403.25;5017013;28;45757;-84
2023/01/20 13:12:28;;;;;;;;;4.50;4.25;;;;;8.02;58.94;101486.50;5031382;28;45323;-82
2023/01/20 13:15:20;;;;;;;;;5.25;5.25;;;;;7.53;58.69;101377.34;5021695;28;45553;-82
2023/01/20 13:18:20;;;;;;;;;5.00;3.00;;;;;8.15;58.80;101482.66;5008062;28;47568;-82
2023/01/20 13:20:51;;;;;;;;;3.50;3.50;;;;;7.50;59.19;101367.63;5013703;28;45894;-82
2023/01/20 13:23:24;;;;;;;;;6.00;6.00;;;;;7.64;58.69;101371.75;5001626;28;45522;-83
2023/01/20 13:25:53;;;;;;;;;6.00;6.00;;;;;7.83;58.92;101381.94;5004482;28;46044;-82
2023/01/20 13:28:27;;;;;;;;;6.00;4.25;;;;;8.04;58.49;101423.25;5020759;28;46480;-83
2023/01/20 13:30:56;;;;;;;;;3.00;3.00;;;;;7.75;58.29;101349.22;5006710;28;45575;-84
2023/01/20 13:33:43;;;;;;;;;3.00;3.00;;;;;8.17;58.28;101439.84;5001002;28;45516;-82
2023/01/20 13:36:31;;;;;;;;;3.75;3.75;;;;;7.80;58.65;101373.16;5021661;28;45194;-83
2023/01/20 13:39:32;;;;;;;;;5.75;4.25;;;;;8.36;58.62;101473.25;5019101;28;46444;-82
2023/01/20 13:42:02;;;;;;;;;6.00;5.00;;;;;7.93;58.64;101412.84;5002966;28;46246;-81
2023/01/20 13:44:36;;;;;;;;;6.25;3.75;;;;;8.00;58.79;101442.94;5012872;28;45582;-85
2023/01/20 13:47:06;;;;;;;;;4.25;4.25;;;;;7.95;59.02;101426.16;4993131;28;45607;-84
2023/01/20 13:49:53;;;;;;;;;5.00;4.00;;;;;8.28;58.88;101469.84;5002403;28;46689;-84
2023/01/20 13:52:58;;;;;;;;;4.25;2.00;;;;;7.53;58.59;101353.34;5013704;28;45523;-83
2023/01/20 13:55:49;;;;;;;;;5.00;5.00;;;;;8.29;59.16;101466.25;4967338;28;45453;-84
2023/01/20 13:58:15;;;;;;;;;5.25;5.25;;;;;7.88;58.46;101377.38;5012766;28;45533;-82
2023/01/20 14:00:42;;;;;;;;;3.00;3.00;;;;;8.13;58.44;101403.47;5005539;28;48280;-83
2023/01/20 14:03:16;;;;;;;;;4.00;3.25;;;;;8.65;58.55;101467.16;5006977;28;45389;-83
2023/01/20 14:05:42;;;;;;;;;0.00;0.00;;;;;8.25;58.37;101374.63;5019026;28;45565;-82
2023/01/20 14:08:14;;;;;;;;;2.50;2.50;;;;;8.28;57.73;101384.38;5017791;28;45562;-82
2023/01/20 14:10:42;;;;;;;;;6.00;3.25;;;;;8.54;58.00;101432.69;5008945;28;45584;-84
2023/01/20 14:13:17;;;;;;;;;3.25;3.25;;;;;8.81;57.98;101470.28;5012859;28;45510;-83
2023/01/20 14:15:49;;;;;;;;;3.00;3.00;;;;;8.62;58.18;101421.78;5015886;28;45597;-83
2023/01/20 14:18:17;;;;;;;;;3.00;3.00;;;;;8.48;57.38;101382.09;5006252;28;45899;-83
2023/01/20 14:20:56;;;;;;;;;3.00;3.00;;;;;8.77;57.21;101429.38;5013299;28;45527;-81
2023/01/20 14:23:28;;;;;;;;;2.25;2.25;;;;;8.71;57.46;101403.72;5004719;28;45519;-85
2023/01/20 14:26:04;;;;;;;;;3.75;3.75;;;;;9.19;56.83;101466.53;5018413;28;45468;-80
2023/01/20 14:28:30;;;;;;;;;3.50;3.50;;;;;9.10;57.11;101462.34;5013051;28;45297;-83
2023/01/20 14:31:14;;;;;;;;;2.00;2.00;;;;;9.19;56.73;101472.75;5011209;28;45899;-83
2023/01/20 14:33:53;;;;;;;;;3.00;3.00;;;;;8.97;56.69;101447.56;5014641;28;45395;-82
2023/01/20 14:36:20;;;;;;;;;2.00;2.00;;;;;8.78;57.13;101412.44;5027417;28;44836;-83
2023/01/20 14:38:55;;;;;;;;;2.25;2.25;;;;;9.02;57.06;101459.88;5028540;28;45238;-80
2023/01/20 14:41:46;;;;;;;;;2.00;2.00;;;;;8.86;56.96;101421.09;5028108;28;45418;-84
2023/01/20 14:44:16;;;;;;;;;5.50;3.50;;;;;8.55;57.31;101362.28;5022224;28;45375;-84
2023/01/20 14:46:42;;;;;;;;;4.25;2.75;;;;;8.64;56.17;101375.41;5028712;28;45509;-80
2023/01/20 14:49:14;;;;;;;;;3.50;3.00;;;;;8.64;56.26;101386.09;5010315;28;47321;-81
2023/01/20 14:51:39;;;;;;;;;3.25;3.00;;;;;8.73;56.54;101403.66;5022373;28;45382;-83
2023/01/20 14:54:35;;;;;;;;;2.00;2.00;;;;;9.19;56.84;101475.44;5015928;28;45577;-83
2023/01/20 14:57:21;;;;;;;;;4.75;3.25;;;;;8.97;56.50;101434.19;5026222;28;45370;-85
2023/01/20 15:00:25;;;;;;;;;2.00;2.00;;;;;8.84;56.71;101419.41;5022186;28;46962;-85
2023/01/20 15:03:04;;;;;;;;;3.00;3.00;;;;;9.29;56.46;101500.13;5000976;28;45879;-85
2023/01/20 15:08:53;;;;;;;;;3.50;2.00;;;;;8.66;56.20;101391.41;4998528;28;45368;-82
2023/01/20 15:11:30;;;;;;;;;2.00;2.00;;;;;9.11;57.00;101494.38;5019277;28;45523;-83
2023/01/20 15:13:59;;;;;;;;;6.50;3.00;;;;;9.04;56.89;101486.56;5019018;28;45643;-83
2023/01/20 15:16:29;;;;;;;;;6.00;3.25;;;;;9.02;56.75;101485.72;5002440;28;45687;-83
2023/01/20 15:19:16;;;;;;;;;2.25;2.25;;;;;9.03;56.89;101492.84;5005604;28;45470;-82
2023/01/20 15:21:44;;;;;;;;;3.00;3.00;;;;;8.48;57.44;101431.97;5007953;28;45355;-83
2023/01/20 15:24:20;;;;;;;;;4.25;4.25;;;;;8.81;57.45;101503.25;5009466;28;45588;-81
2023/01/20 15:26:48;;;;;;;;;3.25;3.25;;;;;8.59;57.91;101465.50;5022163;28;44660;-82
2023/01/20 15:29:25;;;;;;;;;5.75;3.00;;;;;8.76;58.08;101482.91;5017761;28;45303;-81
2023/01/20 15:31:52;;;;;;;;;4.75;3.50;;;;;8.83;58.11;101497.88;5021729;28;45333;-82
2023/01/20 15:34:18;;;;;;;;;2.00;2.00;;;;;8.55;57.75;101457.63;5008407;28;46479;-81
2023/01/20 15:36:45;;;;;;;;;3.00;3.00;;;;;8.66;58.15;101501.00;5029747;28;45538;-83
2023/01/20 15:39:16;;;;;;;;;4.00;2.00;;;;;8.24;58.37;101444.16;4997409;28;45350;-82
2023/01/20 15:41:42;;;;;;;;;2.00;2.00;;;;;8.06;58.96;101417.91;5023848;28;45316;-82
2023/01/20 15:44:07;;;;;;;;;7.25;7.25;;;;;8.33;59.38;101478.69;5019378;28;45385;-81
2023/01/20 15:46:34;;;;;;;;;3.50;3.50;;;;;8.41;59.08;101478.47;5029894;28;45380;-81
2023/01/20 15:49:00;;;;;;;;;6.25;4.00;;;;;8.31;59.32;101476.03;5023286;28;45521;-85
2023/01/20 15:51:25;;;;;;;;;3.00;3.00;;;;;8.27;59.38;101481.44;5025117;28;45016;-84
2023/01/20 15:53:51;;;;;;;;;5.25;3.00;;;;;8.16;59.50;101467.50;5019934;28;45645;-77
2023/01/20 15:56:22;;;;;;;;;7.00;4.50;;;;;8.49;59.34;101525.47;5027679;28;44797;-78
2023/01/20 15:58:49;;;;;;;;;5.00;2.00;;;;;8.31;59.60;101499.19;5022915;28;45423;-78
2023/01/20 16:01:18;;;;;;;;;2.25;2.25;;;;;8.34;60.09;101512.47;5022878;28;45341;-80
2023/01/20 16:03:43;;;;;;;;;6.00;5.75;;;;;8.38;60.70;101529.31;5017358;28;46026;-78
2023/01/20 16:06:15;;;;;;;;;3.00;3.00;;;;;8.33;59.96;101524.09;5017804;28;45368;-79
2023/01/20 16:08:44;;;;;;;;;4.00;2.75;;;;;8.42;60.01;101534.53;5017247;28;45414;-81
2023/01/20 16:11:10;;;;;;;;;2.50;2.50;;;;;8.37;60.00;101533.78;4998344;28;45881;-74
2023/01/20 16:13:36;;;;;;;;;2.75;2.75;;;;;8.27;60.25;101524.19;5016556;28;46173;-78
2023/01/20 16:16:01;;;;;;;;;5.75;3.75;;;;;8.24;60.30;101521.59;5016674;28;45467;-76
2023/01/20 16:18:27;;;;;;;;;2.75;2.00;;;;;8.31;60.14;101533.94;5016814;28;45814;-78
2023/01/20 16:20:52;;;;;;;;;4.00;3.00;;;;;8.34;60.21;101545.41;4998410;28;46283;-78
2023/01/20 16:23:18;;;;;;;;;2.00;2.00;;;;;8.32;59.86;101552.59;5016760;28;46194;-75
2023/01/20 16:25:44;;;;;;;;;7.00;3.00;;;;;8.26;60.08;101552.69;5016340;28;45447;-77
2023/01/20 16:28:12;;;;;;;;;6.00;4.75;;;;;8.24;60.20;101559.00;5017453;28;45781;-78
2023/01/20 16:30:37;;;;;;;;;4.25;4.25;;;;;8.12;60.52;101545.91;5016904;28;45495;-77
2023/01/20 16:33:02;;;;;;;;;2.50;2.50;;;;;8.07;60.73;101539.81;5016700;28;45524;-77
2023/01/20 16:35:28;;;;;;;;;6.50;2.75;;;;;8.19;60.73;101556.41;5016686;28;45318;-77
2023/01/20 16:37:55;;;;;;;;;3.50;3.50;;;;;7.98;60.65;101527.56;5016819;28;46777;-78
2023/01/20 16:40:21;;;;;;;;;8.50;5.50;;;;;8.08;60.61;101554.94;5016554;28;45459;-77
2023/01/20 16:42:46;;;;;;;;;2.00;2.00;;;;;8.07;60.76;101551.38;5015763;28;45981;-77
2023/01/20 16:45:19;;;;;;;;;2.25;2.25;;;;;8.18;60.59;101577.81;5010133;28;45934;-78
2023/01/20 16:47:45;;;;;;;;;3.00;3.00;;;;;7.99;61.24;101548.84;5013147;28;45394;-73
2023/01/20 16:50:11;;;;;;;;;4.25;4.25;;;;;8.05;60.82;101560.31;4997664;28;46427;-77
2023/01/20 16:52:36;;;;;;;;;5.00;2.00;;;;;8.09;61.28;101578.03;5013913;28;46093;-78
2023/01/20 16:55:02;;;;;;;;;3.00;3.00;;;;;8.04;61.15;101579.94;5015640;28;45420;-77
2023/01/20 16:57:28;;;;;;;;;3.00;3.00;;;;;7.81;62.04;101551.06;5015978;28;45337;-77
2023/01/20 16:59:53;;;;;;;;;10.00;6.00;;;;;7.76;61.37;101537.81;5015468;28;45485;-76
2023/01/20 17:02:18;;;;;;;;;5.00;5.00;;;;;7.87;61.68;101562.50;4998558;28;48523;-75
2023/01/20 17:04:44;;;;;;;;;7.00;5.00;;;;;7.92;61.46;101573.94;5016282;28;45254;-75
2023/01/20 17:07:09;;;;;;;;;5.25;3.00;;;;;7.88;61.66;101566.94;5015949;28;45411;-76
2023/01/20 17:09:34;;;;;;;;;6.00;4.75;;;;;7.91;61.92;101572.19;5013106;28;45715;-76
2023/01/20 17:12:00;;;;;;;;;12.00;5.50;;;;;7.80;62.16;101557.31;5016191;28;45367;-76
2023/01/20 17:14:25;;;;;;;;;5.00;4.00;;;;;7.85;62.13;101580.31;5016386;28;45328;-77
2023/01/20 17:16:51;;;;;;;;;5.50;4.50;;;;;7.82;61.81;101577.75;5016451;28;45646;-77
2023/01/20 17:19:16;;;;;;;;;5.50;5.00;;;;;7.82;62.07;101582.19;5010592;28;45377;-76
2023/01/20 17:21:42;;;;;;;;;5.25;5.25;;;;;7.74;62.41;101582.34;5009214;28;46067;-75
2023/01/20 17:24:10;;;;;;;;;5.00;5.00;;;;;7.60;62.82;101566.63;5010156;28;45234;-78
2023/01/20 17:26:36;;;;;;;;;6.25;6.25;;;;;7.75;62.71;101583.22;5016188;28;45794;-75
2023/01/20 17:29:04;;;;;;;;;10.25;6.00;;;;;7.76;62.53;101583.19;5014403;28;46007;-77
2023/01/20 17:31:32;;;;;;;;;9.50;7.00;;;;;7.74;62.73;101593.00;5015653;28;46126;-78